sensor_id;sensor_type;location;lat;lon;timestamp;pressure;altitude;pressure_sealevel;temperature;humidity
5500;BME280;2772;42.700;23.304;2023-05-02T00:01:15;95446.28;;;14.96;100.00
5500;BME280;2772;42.700;23.304;2023-05-02T00:03:42;95452.44;;;14.97;100.00
5500;BME280;2772;42.700;23.304;2023-05-02T00:06:09;95446.78;;;14.90;100.00
5500;BME280;2772;42.700;23.304;2023-05-02T00:08:37;95444.44;;;14.88;100.00
5500;BME280;2772;42.700;23.304;2023-05-02T00:11:04;95440.34;;;14.91;100.00
5500;BME280;2772;42.700;23.304;2023-05-02T00:13:32;95443.47;;;14.93;100.00
5500;BME280;2772;42.700;23.304;2023-05-02T00:15:59;95444.94;;;14.82;100.00
5500;BME280;2772;42.700;23.304;2023-05-02T00:18:25;95433.78;;;14.80;100.00
5500;BME280;2772;42.700;23.304;2023-05-02T00:20:54;95434.53;;;14.80;100.00
5500;BME280;2772;42.700;23.304;2023-05-02T00:23:20;95438.66;;;14.78;100.00
5500;BME280;2772;42.700;23.304;2023-05-02T00:25:48;95449.22;;;14.83;100.00
5500;BME280;2772;42.700;23.304;2023-05-02T00:28:15;95453.78;;;14.82;100.00
5500;BME280;2772;42.700;23.304;2023-05-02T00:30:44;95456.31;;;14.79;100.00
5500;BME280;2772;42.700;23.304;2023-05-02T00:33:10;95447.69;;;14.73;100.00
5500;BME280;2772;42.700;23.304;2023-05-02T00:35:39;95456.38;;;14.70;100.00
5500;BME280;2772;42.700;23.304;2023-05-02T00:38:06;95467.25;;;14.74;100.00
5500;BME280;2772;42.700;23.304;2023-05-02T00:40:42;95455.16;;;14.59;100.00
5500;BME280;2772;42.700;23.304;2023-05-02T00:43:09;95466.38;;;14.61;100.00
5500;BME280;2772;42.700;23.304;2023-05-02T00:45:36;95472.66;;;14.57;100.00
5500;BME280;2772;42.700;23.304;2023-05-02T00:48:06;95475.50;;;14.60;100.00
5500;BME280;2772;42.700;23.304;2023-05-02T00:50:37;95476.47;;;14.56;100.00
5500;BME280;2772;42.700;23.304;2023-05-02T00:53:05;95474.78;;;14.43;100.00
5500;BME280;2772;42.700;23.304;2023-05-02T00:55:33;95471.66;;;14.32;100.00
5500;BME280;2772;42.700;23.304;2023-05-02T00:58:05;95477.81;;;14.32;100.00
5500;BME280;2772;42.700;23.304;2023-05-02T01:00:42;95472.47;;;14.24;100.00
5500;BME280;2772;42.700;23.304;2023-05-02T01:03:24;95468.66;;;14.33;100.00
5500;BME280;2772;42.700;23.304;2023-05-02T01:06:09;95463.34;;;14.25;100.00
5500;BME280;2772;42.700;23.304;2023-05-02T01:08:44;95472.75;;;14.22;100.00
5500;BME280;2772;42.700;23.304;2023-05-02T01:11:14;95465.03;;;14.21;100.00
5500;BME280;2772;42.700;23.304;2023-05-02T01:13:45;95469.16;;;14.18;100.00
5500;BME280;2772;42.700;23.304;2023-05-02T01:16:13;95477.97;;;14.27;100.00
5500;BME280;2772;42.700;23.304;2023-05-02T01:18:45;95471.81;;;14.27;100.00
5500;BME280;2772;42.700;23.304;2023-05-02T01:21:16;95464.59;;;14.27;100.00
5500;BME280;2772;42.700;23.304;2023-05-02T01:23:51;95457.81;;;14.21;100.00
5500;BME280;2772;42.700;23.304;2023-05-02T01:26:26;95455.75;;;14.18;100.00
5500;BME280;2772;42.700;23.304;2023-05-02T01:28:58;95446.28;;;14.21;100.00
5500;BME280;2772;42.700;23.304;2023-05-02T01:31:27;95447.25;;;14.16;100.00
5500;BME280;2772;42.700;23.304;2023-05-02T01:33:56;95447.56;;;14.15;100.00
5500;BME280;2772;42.700;23.304;2023-05-02T01:36:26;95450.56;;;14.13;100.00
5500;BME280;2772;42.700;23.304;2023-05-02T01:38:55;95452.94;;;14.15;100.00
5500;BME280;2772;42.700;23.304;2023-05-02T01:41:25;95460.50;;;14.13;100.00
5500;BME280;2772;42.700;23.304;2023-05-02T01:43:53;95454.38;;;14.12;100.00
5500;BME280;2772;42.700;23.304;2023-05-02T01:46:24;95455.00;;;14.09;100.00
5500;BME280;2772;42.700;23.304;2023-05-02T01:48:52;95466.63;;;14.13;100.00
5500;BME280;2772;42.700;23.304;2023-05-02T01:51:23;95463.03;;;14.09;100.00
5500;BME280;2772;42.700;23.304;2023-05-02T01:53:54;95460.38;;;14.09;100.00
5500;BME280;2772;42.700;23.304;2023-05-02T01:56:23;95470.28;;;14.09;100.00
5500;BME280;2772;42.700;23.304;2023-05-02T01:58:52;95457.69;;;14.01;100.00
5500;BME280;2772;42.700;23.304;2023-05-02T02:01:23;95460.69;;;13.99;100.00
5500;BME280;2772;42.700;23.304;2023-05-02T02:03:53;95456.94;;;13.83;100.00
5500;BME280;2772;42.700;23.304;2023-05-02T02:06:22;95448.09;;;13.91;100.00
5500;BME280;2772;42.700;23.304;2023-05-02T02:08:49;95453.13;;;13.93;100.00
5500;BME280;2772;42.700;23.304;2023-05-02T02:11:25;95458.38;;;13.89;100.00
5500;BME280;2772;42.700;23.304;2023-05-02T02:13:59;95451.75;;;13.87;100.00
5500;BME280;2772;42.700;23.304;2023-05-02T02:16:30;95467.63;;;13.83;100.00
5500;BME280;2772;42.700;23.304;2023-05-02T02:19:03;95456.16;;;13.74;100.00
5500;BME280;2772;42.700;23.304;2023-05-02T02:21:33;95450.97;;;13.69;100.00
5500;BME280;2772;42.700;23.304;2023-05-02T02:24:02;95448.13;;;13.74;100.00
5500;BME280;2772;42.700;23.304;2023-05-02T02:26:29;95453.31;;;13.71;100.00
5500;BME280;2772;42.700;23.304;2023-05-02T02:28:56;95458.69;;;13.62;100.00
5500;BME280;2772;42.700;23.304;2023-05-02T02:31:23;95453.50;;;13.57;100.00
5500;BME280;2772;42.700;23.304;2023-05-02T02:33:51;95455.41;;;13.65;100.00
5500;BME280;2772;42.700;23.304;2023-05-02T02:36:23;95459.03;;;13.61;100.00
5500;BME280;2772;42.700;23.304;2023-05-02T02:39:00;95454.59;;;13.65;100.00
5500;BME280;2772;42.700;23.304;2023-05-02T02:41:34;95455.25;;;13.53;100.00
5500;BME280;2772;42.700;23.304;2023-05-02T02:44:08;95456.50;;;13.56;100.00
5500;BME280;2772;42.700;23.304;2023-05-02T02:46:45;95459.66;;;13.49;100.00
5500;BME280;2772;42.700;23.304;2023-05-02T02:49:24;95460.91;;;13.52;100.00
5500;BME280;2772;42.700;23.304;2023-05-02T02:51:57;95448.47;;;13.56;100.00
5500;BME280;2772;42.700;23.304;2023-05-02T02:54:30;95465.47;;;13.51;100.00
5500;BME280;2772;42.700;23.304;2023-05-02T02:57:05;95467.50;;;13.46;100.00
5500;BME280;2772;42.700;23.304;2023-05-02T02:59:36;95477.75;;;13.44;100.00
5500;BME280;2772;42.700;23.304;2023-05-02T03:02:06;95468.47;;;13.33;100.00
5500;BME280;2772;42.700;23.304;2023-05-02T03:04:40;95480.91;;;13.37;100.00
5500;BME280;2772;42.700;23.304;2023-05-02T03:07:08;95471.47;;;13.31;100.00
5500;BME280;2772;42.700;23.304;2023-05-02T03:09:41;95484.03;;;13.31;100.00
5500;BME280;2772;42.700;23.304;2023-05-02T03:12:08;95479.31;;;13.19;100.00
5500;BME280;2772;42.700;23.304;2023-05-02T03:14:35;95491.13;;;13.27;100.00
5500;BME280;2772;42.700;23.304;2023-05-02T03:17:02;95490.50;;;13.30;100.00
5500;BME280;2772;42.700;23.304;2023-05-02T03:19:28;95490.81;;;13.28;100.00
5500;BME280;2772;42.700;23.304;2023-05-02T03:21:57;95500.72;;;13.28;100.00
5500;BME280;2772;42.700;23.304;2023-05-02T03:24:23;95502.28;;;13.20;100.00
5500;BME280;2772;42.700;23.304;2023-05-02T03:26:53;95492.84;;;13.31;100.00
5500;BME280;2772;42.700;23.304;2023-05-02T03:29:20;95495.69;;;13.26;100.00
5500;BME280;2772;42.700;23.304;2023-05-02T03:31:47;95496.16;;;13.28;100.00
5500;BME280;2772;42.700;23.304;2023-05-02T03:34:14;95495.38;;;13.28;100.00
5500;BME280;2772;42.700;23.304;2023-05-02T03:36:41;95499.59;;;13.29;100.00
5500;BME280;2772;42.700;23.304;2023-05-02T03:39:10;95488.59;;;13.22;100.00
5500;BME280;2772;42.700;23.304;2023-05-02T03:41:37;95494.44;;;13.24;100.00
5500;BME280;2772;42.700;23.304;2023-05-02T03:44:04;95499.47;;;13.25;100.00
5500;BME280;2772;42.700;23.304;2023-05-02T03:46:31;95504.50;;;13.27;100.00
5500;BME280;2772;42.700;23.304;2023-05-02T03:48:58;95500.84;;;13.23;100.00
5500;BME280;2772;42.700;23.304;2023-05-02T03:51:25;95500.84;;;13.14;100.00
5500;BME280;2772;42.700;23.304;2023-05-02T03:53:52;95503.09;;;13.21;100.00
5500;BME280;2772;42.700;23.304;2023-05-02T03:56:20;95510.00;;;13.22;100.00
5500;BME280;2772;42.700;23.304;2023-05-02T03:58:47;95511.72;;;13.26;100.00
5500;BME280;2772;42.700;23.304;2023-05-02T04:01:15;95508.91;;;13.31;100.00
5500;BME280;2772;42.700;23.304;2023-05-02T04:03:41;95509.22;;;13.38;100.00
5500;BME280;2772;42.700;23.304;2023-05-02T04:06:08;95511.28;;;13.50;100.00
5500;BME280;2772;42.700;23.304;2023-05-02T04:08:35;95509.72;;;13.57;100.00
5500;BME280;2772;42.700;23.304;2023-05-02T04:11:02;95513.03;;;13.63;100.00
5500;BME280;2772;42.700;23.304;2023-05-02T04:13:30;95513.94;;;13.58;100.00
5500;BME280;2772;42.700;23.304;2023-05-02T04:15:57;95516.03;;;13.61;100.00
5500;BME280;2772;42.700;23.304;2023-05-02T04:18:24;95515.53;;;13.76;100.00
5500;BME280;2772;42.700;23.304;2023-05-02T04:20:51;95520.75;;;13.81;100.00
5500;BME280;2772;42.700;23.304;2023-05-02T04:23:17;95511.91;;;13.89;100.00
5500;BME280;2772;42.700;23.304;2023-05-02T04:25:50;95508.72;;;13.96;100.00
5500;BME280;2772;42.700;23.304;2023-05-02T04:28:17;95515.81;;;14.00;100.00
5500;BME280;2772;42.700;23.304;2023-05-02T04:30:45;95503.81;;;14.15;100.00
5500;BME280;2772;42.700;23.304;2023-05-02T04:33:11;95519.13;;;14.32;100.00
5500;BME280;2772;42.700;23.304;2023-05-02T04:35:38;95520.03;;;14.36;100.00
5500;BME280;2772;42.700;23.304;2023-05-02T04:38:06;95526.47;;;14.43;100.00
5500;BME280;2772;42.700;23.304;2023-05-02T04:40:33;95532.75;;;14.56;100.00
5500;BME280;2772;42.700;23.304;2023-05-02T04:43:00;95525.47;;;14.65;100.00
5500;BME280;2772;42.700;23.304;2023-05-02T04:45:27;95529.09;;;14.69;100.00
5500;BME280;2772;42.700;23.304;2023-05-02T04:47:56;95523.97;;;14.47;100.00
5500;BME280;2772;42.700;23.304;2023-05-02T04:50:23;95537.78;;;14.57;100.00
5500;BME280;2772;42.700;23.304;2023-05-02T04:52:52;95526.78;;;14.50;100.00
5500;BME280;2772;42.700;23.304;2023-05-02T04:55:19;95535.13;;;14.57;100.00
5500;BME280;2772;42.700;23.304;2023-05-02T04:57:47;95532.75;;;14.56;100.00
5500;BME280;2772;42.700;23.304;2023-05-02T05:00:15;95524.88;;;14.59;100.00
5500;BME280;2772;42.700;23.304;2023-05-02T05:02:43;95527.63;;;14.80;100.00
5500;BME280;2772;42.700;23.304;2023-05-02T05:05:12;95531.38;;;14.87;100.00
5500;BME280;2772;42.700;23.304;2023-05-02T05:07:39;95532.63;;;14.90;100.00
5500;BME280;2772;42.700;23.304;2023-05-02T05:10:08;95536.97;;;14.74;100.00
5500;BME280;2772;42.700;23.304;2023-05-02T05:12:36;95529.84;;;14.78;100.00
5500;BME280;2772;42.700;23.304;2023-05-02T05:15:04;95526.72;;;14.67;100.00
5500;BME280;2772;42.700;23.304;2023-05-02T05:17:32;95523.19;;;14.84;100.00
5500;BME280;2772;42.700;23.304;2023-05-02T05:19:59;95512.88;;;14.94;100.00
5500;BME280;2772;42.700;23.304;2023-05-02T05:22:27;95533.84;;;15.01;100.00
5500;BME280;2772;42.700;23.304;2023-05-02T05:24:54;95532.53;;;15.07;100.00
5500;BME280;2772;42.700;23.304;2023-05-02T05:27:22;95535.69;;;15.09;100.00
5500;BME280;2772;42.700;23.304;2023-05-02T05:29:49;95537.56;;;15.08;100.00
5500;BME280;2772;42.700;23.304;2023-05-02T05:32:16;95541.34;;;15.16;100.00
5500;BME280;2772;42.700;23.304;2023-05-02T05:34:43;95537.06;;;15.15;100.00
5500;BME280;2772;42.700;23.304;2023-05-02T05:37:09;95546.81;;;15.28;100.00
5500;BME280;2772;42.700;23.304;2023-05-02T05:39:37;95545.50;;;15.42;100.00
5500;BME280;2772;42.700;23.304;2023-05-02T05:42:04;95543.84;;;15.50;100.00
5500;BME280;2772;42.700;23.304;2023-05-02T05:44:33;95546.34;;;15.55;100.00
5500;BME280;2772;42.700;23.304;2023-05-02T05:47:00;95544.25;;;15.60;100.00
5500;BME280;2772;42.700;23.304;2023-05-02T05:49:26;95545.22;;;15.56;100.00
5500;BME280;2772;42.700;23.304;2023-05-02T05:51:53;95551.41;;;15.56;100.00
5500;BME280;2772;42.700;23.304;2023-05-02T05:54:20;95545.03;;;15.81;100.00
5500;BME280;2772;42.700;23.304;2023-05-02T05:56:48;95546.81;;;15.77;100.00
5500;BME280;2772;42.700;23.304;2023-05-02T05:59:14;95559.63;;;15.93;100.00
5500;BME280;2772;42.700;23.304;2023-05-02T06:01:41;95552.97;;;15.99;100.00
5500;BME280;2772;42.700;23.304;2023-05-02T06:04:08;95563.31;;;16.09;100.00
5500;BME280;2772;42.700;23.304;2023-05-02T06:06:35;95562.78;;;16.15;100.00
5500;BME280;2772;42.700;23.304;2023-05-02T06:09:01;95560.94;;;16.07;98.80
5500;BME280;2772;42.700;23.304;2023-05-02T06:11:28;95564.75;;;16.06;97.08
5500;BME280;2772;42.700;23.304;2023-05-02T06:13:57;95566.06;;;16.00;98.34
5500;BME280;2772;42.700;23.304;2023-05-02T06:16:24;95568.28;;;15.98;98.84
5500;BME280;2772;42.700;23.304;2023-05-02T06:18:51;95560.28;;;16.10;100.00
5500;BME280;2772;42.700;23.304;2023-05-02T06:21:18;95555.88;;;16.26;100.00
5500;BME280;2772;42.700;23.304;2023-05-02T06:23:45;95558.28;;;16.40;99.26
5500;BME280;2772;42.700;23.304;2023-05-02T06:26:12;95551.53;;;16.34;96.18
5500;BME280;2772;42.700;23.304;2023-05-02T06:28:39;95554.00;;;16.27;95.50
5500;BME280;2772;42.700;23.304;2023-05-02T06:31:07;95549.22;;;16.44;96.67
5500;BME280;2772;42.700;23.304;2023-05-02T06:33:35;95554.63;;;16.44;93.53
5500;BME280;2772;42.700;23.304;2023-05-02T06:36:02;95550.03;;;16.45;93.66
5500;BME280;2772;42.700;23.304;2023-05-02T06:38:29;95566.19;;;16.36;93.52
5500;BME280;2772;42.700;23.304;2023-05-02T06:40:55;95553.81;;;16.44;93.33
5500;BME280;2772;42.700;23.304;2023-05-02T06:43:22;95538.53;;;16.56;93.52
5500;BME280;2772;42.700;23.304;2023-05-02T06:45:52;95545.50;;;16.69;92.85
5500;BME280;2772;42.700;23.304;2023-05-02T06:48:22;95553.34;;;16.74;90.48
5500;BME280;2772;42.700;23.304;2023-05-02T06:50:50;95548.31;;;16.85;93.31
5500;BME280;2772;42.700;23.304;2023-05-02T06:53:18;95548.44;;;16.88;87.85
5500;BME280;2772;42.700;23.304;2023-05-02T06:55:45;95545.75;;;16.88;86.68
5500;BME280;2772;42.700;23.304;2023-05-02T06:58:13;95542.84;;;17.05;88.46
5500;BME280;2772;42.700;23.304;2023-05-02T07:00:40;95543.09;;;17.12;87.78
5500;BME280;2772;42.700;23.304;2023-05-02T07:03:06;95538.13;;;17.02;87.86
5500;BME280;2772;42.700;23.304;2023-05-02T07:05:36;95535.44;;;17.14;89.16
5500;BME280;2772;42.700;23.304;2023-05-02T07:08:03;95529.38;;;17.17;85.38
5500;BME280;2772;42.700;23.304;2023-05-02T07:10:30;95542.16;;;17.20;83.00
5500;BME280;2772;42.700;23.304;2023-05-02T07:12:57;95547.13;;;17.18;81.73
5500;BME280;2772;42.700;23.304;2023-05-02T07:15:23;95546.78;;;17.20;81.20
5500;BME280;2772;42.700;23.304;2023-05-02T07:17:50;95549.59;;;17.23;81.01
5500;BME280;2772;42.700;23.304;2023-05-02T07:20:17;95555.88;;;17.27;80.38
5500;BME280;2772;42.700;23.304;2023-05-02T07:22:46;95546.88;;;17.35;78.53
5500;BME280;2772;42.700;23.304;2023-05-02T07:25:13;95549.03;;;17.42;83.46
5500;BME280;2772;42.700;23.304;2023-05-02T07:27:40;95553.59;;;17.41;79.33
5500;BME280;2772;42.700;23.304;2023-05-02T07:30:07;95550.72;;;17.47;77.92
5500;BME280;2772;42.700;23.304;2023-05-02T07:32:34;95557.00;;;17.51;77.40
5500;BME280;2772;42.700;23.304;2023-05-02T07:35:01;95551.38;;;17.56;77.76
5500;BME280;2772;42.700;23.304;2023-05-02T07:37:31;95544.19;;;17.48;75.40
5500;BME280;2772;42.700;23.304;2023-05-02T07:39:59;95549.91;;;17.58;77.46
5500;BME280;2772;42.700;23.304;2023-05-02T07:42:28;95551.72;;;17.54;75.34
5500;BME280;2772;42.700;23.304;2023-05-02T07:44:54;95555.53;;;17.65;74.65
5500;BME280;2772;42.700;23.304;2023-05-02T07:47:21;95556.84;;;17.71;74.32
5500;BME280;2772;42.700;23.304;2023-05-02T07:49:49;95560.53;;;17.79;74.36
5500;BME280;2772;42.700;23.304;2023-05-02T07:52:18;95551.09;;;17.85;72.56
5500;BME280;2772;42.700;23.304;2023-05-02T07:54:45;95552.25;;;17.72;72.37
5500;BME280;2772;42.700;23.304;2023-05-02T07:57:14;95553.03;;;17.84;72.78
5500;BME280;2772;42.700;23.304;2023-05-02T07:59:41;95550.06;;;17.89;71.26
5500;BME280;2772;42.700;23.304;2023-05-02T08:02:08;95549.91;;;18.10;72.30
5500;BME280;2772;42.700;23.304;2023-05-02T08:04:35;95545.47;;;18.17;70.97
5500;BME280;2772;42.700;23.304;2023-05-02T08:07:02;95547.94;;;18.22;69.29
5500;BME280;2772;42.700;23.304;2023-05-02T08:09:28;95546.91;;;18.27;69.15
5500;BME280;2772;42.700;23.304;2023-05-02T08:11:56;95541.28;;;18.32;68.90
5500;BME280;2772;42.700;23.304;2023-05-02T08:14:24;95554.50;;;18.37;67.33
5500;BME280;2772;42.700;23.304;2023-05-02T08:16:50;95553.84;;;18.40;68.47
5500;BME280;2772;42.700;23.304;2023-05-02T08:19:17;95552.16;;;18.35;66.82
5500;BME280;2772;42.700;23.304;2023-05-02T08:21:44;95553.63;;;18.45;66.32
5500;BME280;2772;42.700;23.304;2023-05-02T08:24:11;95545.31;;;18.38;66.66
5500;BME280;2772;42.700;23.304;2023-05-02T08:26:37;95553.97;;;18.43;65.46
5500;BME280;2772;42.700;23.304;2023-05-02T08:29:04;95548.84;;;18.54;65.98
5500;BME280;2772;42.700;23.304;2023-05-02T08:31:32;95543.66;;;18.61;63.99
5500;BME280;2772;42.700;23.304;2023-05-02T08:33:59;95541.19;;;18.56;63.97
5500;BME280;2772;42.700;23.304;2023-05-02T08:36:25;95540.59;;;18.62;63.74
5500;BME280;2772;42.700;23.304;2023-05-02T08:38:53;95539.97;;;18.69;64.56
5500;BME280;2772;42.700;23.304;2023-05-02T08:41:21;95550.06;;;18.72;63.53
5500;BME280;2772;42.700;23.304;2023-05-02T08:43:48;95540.78;;;18.69;62.46
5500;BME280;2772;42.700;23.304;2023-05-02T08:46:15;95534.94;;;18.83;62.00
5500;BME280;2772;42.700;23.304;2023-05-02T08:48:44;95544.28;;;19.01;63.11
5500;BME280;2772;42.700;23.304;2023-05-02T08:51:14;95541.13;;;19.15;61.72
5500;BME280;2772;42.700;23.304;2023-05-02T08:53:41;95530.56;;;19.25;61.15
5500;BME280;2772;42.700;23.304;2023-05-02T08:56:11;95530.78;;;19.32;60.90
5500;BME280;2772;42.700;23.304;2023-05-02T08:58:39;95538.53;;;19.34;60.20
5500;BME280;2772;42.700;23.304;2023-05-02T09:01:09;95532.59;;;19.28;59.62
5500;BME280;2772;42.700;23.304;2023-05-02T09:03:37;95530.44;;;19.34;60.01
5500;BME280;2772;42.700;23.304;2023-05-02T09:06:08;95529.28;;;19.35;59.70
5500;BME280;2772;42.700;23.304;2023-05-02T09:08:35;95534.06;;;19.41;59.53
5500;BME280;2772;42.700;23.304;2023-05-02T09:11:03;95530.31;;;19.46;59.40
5500;BME280;2772;42.700;23.304;2023-05-02T09:13:33;95528.41;;;19.46;58.95
5500;BME280;2772;42.700;23.304;2023-05-02T09:16:01;95524.91;;;19.46;58.39
5500;BME280;2772;42.700;23.304;2023-05-02T09:18:30;95514.63;;;19.51;58.56
5500;BME280;2772;42.700;23.304;2023-05-02T09:20:58;95524.16;;;19.64;58.05
5500;BME280;2772;42.700;23.304;2023-05-02T09:23:34;95518.97;;;19.56;57.98
5500;BME280;2772;42.700;23.304;2023-05-02T09:26:15;95524.97;;;19.65;58.19
5500;BME280;2772;42.700;23.304;2023-05-02T09:28:44;95515.78;;;19.69;58.63
5500;BME280;2772;42.700;23.304;2023-05-02T09:31:13;95516.50;;;19.66;56.86
5500;BME280;2772;42.700;23.304;2023-05-02T09:33:40;95513.00;;;19.47;55.83
5500;BME280;2772;42.700;23.304;2023-05-02T09:36:08;95518.75;;;19.64;58.92
5500;BME280;2772;42.700;23.304;2023-05-02T09:38:37;95507.84;;;19.76;58.69
5500;BME280;2772;42.700;23.304;2023-05-02T09:41:04;95511.13;;;19.85;58.13
5500;BME280;2772;42.700;23.304;2023-05-02T09:43:31;95511.53;;;20.06;55.79
5500;BME280;2772;42.700;23.304;2023-05-02T09:45:59;95516.81;;;19.99;54.39
5500;BME280;2772;42.700;23.304;2023-05-02T09:48:27;95515.47;;;20.09;54.28
5500;BME280;2772;42.700;23.304;2023-05-02T09:50:54;95514.59;;;20.05;53.44
5500;BME280;2772;42.700;23.304;2023-05-02T09:53:25;95504.97;;;20.23;55.03
5500;BME280;2772;42.700;23.304;2023-05-02T09:56:01;95498.03;;;20.25;55.90
5500;BME280;2772;42.700;23.304;2023-05-02T09:58:28;95502.31;;;20.26;53.05
5500;BME280;2772;42.700;23.304;2023-05-02T10:00:57;95494.91;;;20.23;52.50
5500;BME280;2772;42.700;23.304;2023-05-02T10:03:26;95503.72;;;20.39;52.98
5500;BME280;2772;42.700;23.304;2023-05-02T10:05:53;95494.47;;;20.40;52.65
5500;BME280;2772;42.700;23.304;2023-05-02T10:08:21;95495.75;;;20.47;51.71
5500;BME280;2772;42.700;23.304;2023-05-02T10:10:52;95490.34;;;20.47;51.29
5500;BME280;2772;42.700;23.304;2023-05-02T10:13:21;95480.00;;;20.52;50.58
5500;BME280;2772;42.700;23.304;2023-05-02T10:15:57;95484.75;;;20.59;50.81
5500;BME280;2772;42.700;23.304;2023-05-02T10:18:27;95473.19;;;20.62;49.78
5500;BME280;2772;42.700;23.304;2023-05-02T10:20:58;95479.16;;;20.48;49.65
5500;BME280;2772;42.700;23.304;2023-05-02T10:23:27;95484.81;;;20.20;49.86
5500;BME280;2772;42.700;23.304;2023-05-02T10:25:54;95484.09;;;20.23;49.84
5500;BME280;2772;42.700;23.304;2023-05-02T10:28:22;95476.41;;;20.25;49.91
5500;BME280;2772;42.700;23.304;2023-05-02T10:30:50;95468.47;;;20.36;49.76
5500;BME280;2772;42.700;23.304;2023-05-02T10:33:19;95462.13;;;20.48;49.61
5500;BME280;2772;42.700;23.304;2023-05-02T10:35:46;95463.56;;;20.41;49.25
5500;BME280;2772;42.700;23.304;2023-05-02T10:38:15;95463.81;;;20.56;49.27
5500;BME280;2772;42.700;23.304;2023-05-02T10:40:49;95464.06;;;20.70;48.68
5500;BME280;2772;42.700;23.304;2023-05-02T10:43:22;95459.81;;;20.69;48.31
5500;BME280;2772;42.700;23.304;2023-05-02T10:45:51;95461.78;;;20.72;48.21
5500;BME280;2772;42.700;23.304;2023-05-02T10:48:19;95450.25;;;20.78;50.01
5500;BME280;2772;42.700;23.304;2023-05-02T10:50:48;95451.91;;;20.83;48.48
5500;BME280;2772;42.700;23.304;2023-05-02T10:53:26;95455.88;;;20.89;48.16
5500;BME280;2772;42.700;23.304;2023-05-02T10:56:23;95450.47;;;20.89;47.72
5500;BME280;2772;42.700;23.304;2023-05-02T10:58:52;95435.22;;;20.81;47.92
5500;BME280;2772;42.700;23.304;2023-05-02T11:01:31;95434.56;;;20.87;48.35
5500;BME280;2772;42.700;23.304;2023-05-02T11:04:01;95448.03;;;20.84;47.28
5500;BME280;2772;42.700;23.304;2023-05-02T11:06:30;95439.56;;;20.85;47.17
5500;BME280;2772;42.700;23.304;2023-05-02T11:09:31;95436.56;;;20.90;47.07
5500;BME280;2772;42.700;23.304;2023-05-02T11:12:01;95447.56;;;21.01;47.06
5500;BME280;2772;42.700;23.304;2023-05-02T11:14:47;95433.47;;;20.92;47.20
5500;BME280;2772;42.700;23.304;2023-05-02T11:17:14;95437.69;;;20.89;46.93
5500;BME280;2772;42.700;23.304;2023-05-02T11:22:58;95426.28;;;20.99;47.36
5500;BME280;2772;42.700;23.304;2023-05-02T11:25:32;95430.59;;;21.04;47.30
5500;BME280;2772;42.700;23.304;2023-05-02T11:27:59;95417.50;;;21.09;47.81
5500;BME280;2772;42.700;23.304;2023-05-02T11:30:41;95424.72;;;21.24;47.03
5500;BME280;2772;42.700;23.304;2023-05-02T11:33:13;95423.84;;;21.20;46.73
5500;BME280;2772;42.700;23.304;2023-05-02T11:35:43;95423.91;;;21.24;46.76
5500;BME280;2772;42.700;23.304;2023-05-02T11:38:12;95416.25;;;21.29;46.65
5500;BME280;2772;42.700;23.304;2023-05-02T11:40:39;95412.81;;;21.32;46.49
5500;BME280;2772;42.700;23.304;2023-05-02T11:43:14;95412.13;;;21.39;46.60
5500;BME280;2772;42.700;23.304;2023-05-02T11:45:42;95408.03;;;21.52;46.07
5500;BME280;2772;42.700;23.304;2023-05-02T11:48:11;95402.91;;;21.73;45.97
5500;BME280;2772;42.700;23.304;2023-05-02T11:50:41;95407.03;;;21.93;45.20
5500;BME280;2772;42.700;23.304;2023-05-02T11:53:12;95389.91;;;21.85;46.46
5500;BME280;2772;42.700;23.304;2023-05-02T11:55:44;95394.81;;;21.76;45.68
5500;BME280;2772;42.700;23.304;2023-05-02T11:58:15;95396.78;;;21.79;44.92
5500;BME280;2772;42.700;23.304;2023-05-02T12:00:45;95386.19;;;22.01;45.26
5500;BME280;2772;42.700;23.304;2023-05-02T12:03:23;95385.81;;;22.02;44.82
5500;BME280;2772;42.700;23.304;2023-05-02T12:05:50;95379.56;;;21.98;45.20
5500;BME280;2772;42.700;23.304;2023-05-02T12:08:19;95374.19;;;21.68;45.33
5500;BME280;2772;42.700;23.304;2023-05-02T12:10:47;95375.81;;;21.76;45.68
5500;BME280;2772;42.700;23.304;2023-05-02T12:13:16;95370.41;;;21.76;46.28
5500;BME280;2772;42.700;23.304;2023-05-02T12:15:44;95363.53;;;21.86;46.07
5500;BME280;2772;42.700;23.304;2023-05-02T12:18:11;95366.59;;;21.81;45.22
5500;BME280;2772;42.700;23.304;2023-05-02T12:20:39;95367.41;;;21.85;45.69
5500;BME280;2772;42.700;23.304;2023-05-02T12:23:06;95354.66;;;21.89;44.72
5500;BME280;2772;42.700;23.304;2023-05-02T12:25:37;95361.97;;;21.85;44.63
5500;BME280;2772;42.700;23.304;2023-05-02T12:28:04;95360.81;;;21.86;44.62
5500;BME280;2772;42.700;23.304;2023-05-02T12:30:32;95354.25;;;21.87;44.85
5500;BME280;2772;42.700;23.304;2023-05-02T12:33:01;95359.31;;;21.88;44.72
5500;BME280;2772;42.700;23.304;2023-05-02T12:35:28;95345.06;;;21.95;44.81
5500;BME280;2772;42.700;23.304;2023-05-02T12:38:08;95345.91;;;22.06;44.71
5500;BME280;2772;42.700;23.304;2023-05-02T12:40:36;95339.75;;;22.09;43.89
5500;BME280;2772;42.700;23.304;2023-05-02T12:43:03;95328.84;;;22.02;43.13
5500;BME280;2772;42.700;23.304;2023-05-02T12:45:32;95333.84;;;22.00;43.38
5500;BME280;2772;42.700;23.304;2023-05-02T12:48:01;95323.84;;;22.08;43.86
5500;BME280;2772;42.700;23.304;2023-05-02T12:50:35;95328.22;;;22.19;42.88
5500;BME280;2772;42.700;23.304;2023-05-02T12:53:02;95325.78;;;22.07;42.33
5500;BME280;2772;42.700;23.304;2023-05-02T12:55:29;95324.91;;;21.96;42.08
5500;BME280;2772;42.700;23.304;2023-05-02T12:58:00;95332.22;;;21.92;42.12
5500;BME280;2772;42.700;23.304;2023-05-02T13:00:28;95318.09;;;21.76;41.80
5500;BME280;2772;42.700;23.304;2023-05-02T13:02:54;95318.03;;;21.72;41.64
5500;BME280;2772;42.700;23.304;2023-05-02T13:05:23;95318.50;;;21.78;41.43
5500;BME280;2772;42.700;23.304;2023-05-02T13:07:50;95320.13;;;21.82;42.15
5500;BME280;2772;42.700;23.304;2023-05-02T13:10:17;95311.25;;;21.85;41.61
5500;BME280;2772;42.700;23.304;2023-05-02T13:12:44;95307.09;;;21.98;42.91
5500;BME280;2772;42.700;23.304;2023-05-02T13:15:13;95322.97;;;21.97;42.16
5500;BME280;2772;42.700;23.304;2023-05-02T13:17:40;95317.00;;;21.80;41.26